createdAt,value
2023-04-10T00:00:02.755Z,40.58
2023-04-10T00:02:29.886Z,42.00
2023-04-10T00:04:57.118Z,41.38
2023-04-10T00:07:24.139Z,40.78
2023-04-10T00:09:51.082Z,39.88
2023-04-10T00:12:18.175Z,40.80
2023-04-10T00:14:45.311Z,39.50
2023-04-10T00:17:12.307Z,38.83
2023-04-10T00:19:39.282Z,38.13
2023-04-10T00:22:06.254Z,38.65
2023-04-10T00:24:33.223Z,37.27
2023-04-10T00:27:01.538Z,36.67
2023-04-10T00:29:28.539Z,38.33
2023-04-10T00:31:55.596Z,37.60
2023-04-10T00:34:22.558Z,36.97
2023-04-10T00:36:49.556Z,37.25
2023-04-10T00:39:16.581Z,36.88
2023-04-10T00:41:43.678Z,36.33
2023-04-10T00:44:10.625Z,35.33
2023-04-10T00:46:38.392Z,36.70
2023-04-10T00:49:06.192Z,34.15
2023-04-10T00:51:33.508Z,34.35
2023-04-10T00:54:01.472Z,33.92
2023-04-10T00:56:31.268Z,33.60
2023-04-10T00:58:58.300Z,32.88
2023-04-10T01:01:25.325Z,32.05
2023-04-10T01:03:53.131Z,31.92
2023-04-10T01:06:39.504Z,32.53
2023-04-10T01:09:22.709Z,31.15
2023-04-10T01:12:16.976Z,31.02
2023-04-10T01:15:08.419Z,30.97
2023-04-10T01:17:36.552Z,31.08
2023-04-10T01:20:06.432Z,30.30
2023-04-10T01:22:39.699Z,29.90
2023-04-10T01:25:28.303Z,30.15
2023-04-10T01:28:20.700Z,28.98
2023-04-10T01:30:49.849Z,30.42
2023-04-10T01:33:19.360Z,29.75
2023-04-10T01:35:50.434Z,28.55
2023-04-10T01:38:19.144Z,29.27
2023-04-10T01:40:50.218Z,28.63
2023-04-10T01:43:17.997Z,27.83
2023-04-10T01:45:46.804Z,29.10
2023-04-10T01:48:14.103Z,28.00
2023-04-10T01:50:41.462Z,27.10
2023-04-10T01:53:08.787Z,27.53
2023-04-10T01:55:37.504Z,28.33
2023-04-10T01:58:07.358Z,27.30
2023-04-10T02:00:39.599Z,27.65
2023-04-10T02:03:06.974Z,27.40
2023-04-10T02:06:03.089Z,26.10
2023-04-10T02:08:54.907Z,27.55
2023-04-10T02:11:36.274Z,25.95
2023-04-10T02:14:05.857Z,27.45
2023-04-10T02:16:33.234Z,26.93
2023-04-10T02:19:00.886Z,26.23
2023-04-10T02:21:29.156Z,26.67
2023-04-10T02:23:57.362Z,26.63
2023-04-10T02:26:24.306Z,25.95
2023-04-10T02:28:51.344Z,26.13
2023-04-10T02:31:18.461Z,25.90
2023-04-10T02:33:45.562Z,25.90
2023-04-10T02:36:12.833Z,26.15
2023-04-10T02:38:39.897Z,25.75
2023-04-10T02:41:06.902Z,26.00
2023-04-10T02:43:33.871Z,25.38
2023-04-10T02:46:01.019Z,25.07
2023-04-10T02:48:28.068Z,25.58
2023-04-10T02:50:58.656Z,25.75
2023-04-10T02:53:26.121Z,25.55
2023-04-10T02:55:54.557Z,25.77
2023-04-10T02:58:21.989Z,24.58
2023-04-10T03:00:49.773Z,25.58
2023-04-10T03:03:18.718Z,25.63
2023-04-10T03:05:47.098Z,25.25
2023-04-10T03:08:14.369Z,25.60
2023-04-10T03:10:45.551Z,24.80
2023-04-10T03:13:12.568Z,25.05
2023-04-10T03:15:39.523Z,25.65
2023-04-10T03:18:06.739Z,24.83
2023-04-10T03:20:33.790Z,25.45
2023-04-10T03:23:00.745Z,25.08
2023-04-10T03:25:27.750Z,25.33
2023-04-10T03:27:54.718Z,25.27
2023-04-10T03:30:21.730Z,25.42
2023-04-10T03:32:48.727Z,25.52
2023-04-10T03:35:15.735Z,25.27
2023-04-10T03:37:43.177Z,26.30
2023-04-10T03:40:11.421Z,26.07
2023-04-10T03:42:38.479Z,25.10
2023-04-10T03:45:06.890Z,25.55
2023-04-10T03:47:34.541Z,26.10
2023-04-10T03:50:01.572Z,26.38
2023-04-10T03:52:28.653Z,24.67
2023-04-10T03:54:55.575Z,25.75
2023-04-10T03:57:22.671Z,26.98
2023-04-10T03:59:49.633Z,25.70
2023-04-10T04:02:16.620Z,25.80
2023-04-10T04:04:43.742Z,25.48
2023-04-10T04:07:11.997Z,25.08
2023-04-10T04:09:39.366Z,25.65
2023-04-10T04:12:06.585Z,24.90
2023-04-10T04:14:33.573Z,25.02
2023-04-10T04:17:00.812Z,24.63
2023-04-10T04:19:27.833Z,25.17
2023-04-10T04:21:54.832Z,25.23
2023-04-10T04:24:22.023Z,23.33
2023-04-10T04:26:49.004Z,23.55
2023-04-10T04:29:16.422Z,23.75
2023-04-10T04:31:43.454Z,24.23
2023-04-10T04:34:10.525Z,24.08
2023-04-10T04:36:37.471Z,24.17
2023-04-10T04:39:04.447Z,23.73
2023-04-10T04:41:32.545Z,23.67
2023-04-10T04:44:01.828Z,23.07
2023-04-10T04:46:29.104Z,22.73
2023-04-10T04:48:56.470Z,23.00
2023-04-10T04:51:23.419Z,22.70
2023-04-10T04:53:50.486Z,23.48
2023-04-10T04:56:17.477Z,21.95
2023-04-10T04:58:44.492Z,22.80
2023-04-10T05:01:11.880Z,22.25
2023-04-10T05:03:38.995Z,22.58
2023-04-10T05:06:06.652Z,22.40
2023-04-10T05:08:33.708Z,22.48
2023-04-10T05:11:00.921Z,22.25
2023-04-10T05:13:27.891Z,22.50
2023-04-10T05:15:54.935Z,22.15
2023-04-10T05:18:23.745Z,21.90
2023-04-10T05:20:50.968Z,21.20
2023-04-10T05:23:17.897Z,22.50
2023-04-10T05:25:44.886Z,22.07
2023-04-10T05:28:11.827Z,21.85
2023-04-10T05:30:38.838Z,21.77
2023-04-10T05:33:05.811Z,22.13
2023-04-10T05:35:32.733Z,20.90
2023-04-10T05:38:00.795Z,21.95
2023-04-10T05:40:28.972Z,21.33
2023-04-10T05:42:56.075Z,21.85
2023-04-10T05:45:23.258Z,20.75
2023-04-10T05:47:50.228Z,20.55
2023-04-10T05:50:17.275Z,20.55
2023-04-10T05:52:44.288Z,20.67
2023-04-10T05:55:11.291Z,20.63
2023-04-10T05:57:39.325Z,20.35
2023-04-10T06:00:06.927Z,20.83
2023-04-10T06:02:34.172Z,21.70
2023-04-10T06:05:01.263Z,21.50
2023-04-10T06:07:28.666Z,21.10
2023-04-10T06:09:55.675Z,21.50
2023-04-10T06:12:22.682Z,20.60
2023-04-10T06:14:49.818Z,20.52
2023-04-10T06:17:16.877Z,20.52
2023-04-10T06:19:43.896Z,19.73
2023-04-10T06:22:10.916Z,19.95
2023-04-10T06:24:38.107Z,18.88
2023-04-10T06:27:05.142Z,19.23
2023-04-10T06:29:32.049Z,18.10
2023-04-10T06:31:59.069Z,17.95
2023-04-10T06:34:26.116Z,18.10
2023-04-10T06:36:53.117Z,17.98
2023-04-10T06:39:20.054Z,17.05
2023-04-10T06:41:47.115Z,17.60
2023-04-10T06:44:15.474Z,16.80
2023-04-10T06:46:42.493Z,16.95
2023-04-10T06:49:09.488Z,17.40
2023-04-10T06:51:36.435Z,17.85
2023-04-10T06:54:03.398Z,16.77
2023-04-10T06:56:30.541Z,16.90
2023-04-10T06:58:58.017Z,16.38
2023-04-10T07:01:26.078Z,15.70
2023-04-10T07:03:53.631Z,16.50
2023-04-10T07:06:20.782Z,15.65
2023-04-10T07:08:49.239Z,15.70
2023-04-10T07:11:16.204Z,15.82
2023-04-10T07:13:43.203Z,15.00
2023-04-10T07:16:11.032Z,15.15
2023-04-10T07:18:39.047Z,15.18
2023-04-10T07:21:13.077Z,14.05
2023-04-10T07:23:40.827Z,15.23
2023-04-10T07:26:07.782Z,14.55
2023-04-10T07:28:35.023Z,14.93
2023-04-10T07:31:02.084Z,14.73
2023-04-10T07:33:29.050Z,13.70
2023-04-10T07:35:56.053Z,13.65
2023-04-10T07:38:24.584Z,14.32
2023-04-10T07:40:58.680Z,14.27
2023-04-10T07:43:25.910Z,13.85
2023-04-10T07:45:52.962Z,13.30
2023-04-10T07:48:20.217Z,14.30
2023-04-10T07:50:47.175Z,13.52
2023-04-10T07:53:14.172Z,13.48
2023-04-10T07:55:45.960Z,14.07
2023-04-10T07:58:12.929Z,13.57
2023-04-10T08:00:39.951Z,13.73
2023-04-10T08:03:07.346Z,14.40
2023-04-10T08:05:34.568Z,13.57
2023-04-10T08:08:01.574Z,13.82
2023-04-10T08:10:28.564Z,14.15
2023-04-10T08:12:55.707Z,13.90
2023-04-10T08:15:22.681Z,13.75
2023-04-10T08:17:49.696Z,13.32
2023-04-10T08:20:16.741Z,14.35
2023-04-10T08:22:43.685Z,13.80
2023-04-10T08:25:10.731Z,14.00
2023-04-10T08:27:37.887Z,13.52
2023-04-10T08:30:05.747Z,14.18
2023-04-10T08:32:32.899Z,13.40
2023-04-10T08:34:59.979Z,13.45
2023-04-10T08:37:27.096Z,12.38
2023-04-10T08:39:54.148Z,12.25
2023-04-10T08:42:22.227Z,11.65
2023-04-10T08:44:50.827Z,12.52
2023-04-10T08:47:20.692Z,11.85
2023-04-10T08:49:57.808Z,12.27
2023-04-10T08:52:26.013Z,12.20
2023-04-10T08:54:56.528Z,11.45
2023-04-10T08:57:23.557Z,11.50
2023-04-10T08:59:54.330Z,11.93
2023-04-10T09:02:21.760Z,11.85
2023-04-10T09:04:50.673Z,11.90
2023-04-10T09:07:18.644Z,12.30
2023-04-10T09:09:45.696Z,12.80
2023-04-10T09:12:13.958Z,11.82
2023-04-10T09:14:41.769Z,11.57
2023-04-10T09:17:19.585Z,11.67
2023-04-10T09:19:48.465Z,11.63
2023-04-10T09:22:16.234Z,11.68
2023-04-10T09:24:45.294Z,11.88
2023-04-10T09:27:28.136Z,11.35
2023-04-10T09:29:55.154Z,11.20
2023-04-10T09:32:42.080Z,10.80
2023-04-10T09:35:16.022Z,10.90
2023-04-10T09:37:46.400Z,10.68
2023-04-10T09:40:21.770Z,10.73
2023-04-10T09:42:48.739Z,10.65
2023-04-10T09:45:19.852Z,10.77
2023-04-10T09:48:07.032Z,10.32
2023-04-10T09:50:37.988Z,10.07
2023-04-10T09:53:05.834Z,9.90
2023-04-10T09:55:36.297Z,9.65
2023-04-10T09:58:05.482Z,9.53
2023-04-10T10:00:44.312Z,9.80
2023-04-10T10:03:13.849Z,9.50
2023-04-10T10:05:45.698Z,10.38
2023-04-10T10:08:15.474Z,9.50
2023-04-10T10:10:54.026Z,8.77
2023-04-10T10:13:47.062Z,9.05
2023-04-10T10:16:32.227Z,8.85
2023-04-10T10:19:10.813Z,8.83
2023-04-10T10:21:38.670Z,8.55
2023-04-10T10:24:09.192Z,8.27
2023-04-10T10:26:39.449Z,8.35
2023-04-10T10:29:11.478Z,9.20
2023-04-10T10:31:38.863Z,12.18
2023-04-10T10:34:07.511Z,10.00
2023-04-10T10:36:37.956Z,9.55
2023-04-10T10:39:29.382Z,9.25
2023-04-10T10:42:12.037Z,8.83
2023-04-10T10:44:42.017Z,9.15
2023-04-10T10:47:23.169Z,8.15
2023-04-10T10:49:57.646Z,8.85
2023-04-10T10:52:43.570Z,8.93
2023-04-10T10:55:22.400Z,8.47
2023-04-10T10:57:52.284Z,8.73
2023-04-10T11:00:20.398Z,8.55
2023-04-10T11:03:07.720Z,8.95
2023-04-10T11:05:52.298Z,8.23
2023-04-10T11:08:33.167Z,8.82
2023-04-10T11:11:09.538Z,8.63
2023-04-10T11:13:56.461Z,8.75
2023-04-10T11:16:24.507Z,9.05
2023-04-10T11:19:02.719Z,8.05
2023-04-10T11:22:04.309Z,9.23
2023-04-10T11:24:53.363Z,8.50
2023-04-10T11:27:44.865Z,8.45
2023-04-10T11:30:28.013Z,8.30
2023-04-10T11:32:55.573Z,8.57
2023-04-10T11:35:22.696Z,8.00
2023-04-10T11:37:49.775Z,8.23
2023-04-10T11:40:17.211Z,8.13
2023-04-10T11:42:44.567Z,7.77
2023-04-10T11:45:27.992Z,7.55
2023-04-10T11:47:55.571Z,13.57
2023-04-10T11:50:22.561Z,8.18
2023-04-10T11:52:50.662Z,7.13
2023-04-10T11:55:17.980Z,9.70
2023-04-10T11:57:45.547Z,7.70
2023-04-10T12:00:13.600Z,7.45
2023-04-10T12:02:53.378Z,8.00
2023-04-10T12:05:20.780Z,7.37
2023-04-10T12:07:50.269Z,8.02
2023-04-10T12:10:17.234Z,7.43
2023-04-10T12:12:44.274Z,6.45
2023-04-10T12:15:28.349Z,7.32
2023-04-10T12:17:55.579Z,6.93
2023-04-10T12:20:26.496Z,6.50
2023-04-10T12:22:56.250Z,6.70
2023-04-10T12:25:23.248Z,7.03
2023-04-10T12:27:53.308Z,6.30
2023-04-10T12:30:20.278Z,6.75
2023-04-10T12:32:54.212Z,6.20
2023-04-10T12:35:21.318Z,6.20
2023-04-10T12:37:54.301Z,6.00
2023-04-10T12:40:21.530Z,7.68
2023-04-10T12:42:48.530Z,6.60
2023-04-10T12:45:15.619Z,6.37
2023-04-10T12:47:47.611Z,5.80
2023-04-10T12:50:18.509Z,5.27
2023-04-10T12:53:01.680Z,4.78
2023-04-10T12:55:31.567Z,5.03
2023-04-10T12:57:58.601Z,5.25
2023-04-10T13:00:25.836Z,4.80
2023-04-10T13:02:52.871Z,4.75
2023-04-10T13:05:21.520Z,5.50
2023-04-10T13:07:52.515Z,5.13
2023-04-10T13:10:19.565Z,5.05
2023-04-10T13:12:47.161Z,4.93
2023-04-10T13:15:14.149Z,5.30
2023-04-10T13:17:41.855Z,6.47
2023-04-10T13:20:13.334Z,4.85
2023-04-10T13:22:40.358Z,4.63
2023-04-10T13:25:07.631Z,5.40
2023-04-10T13:27:34.653Z,6.47
2023-04-10T13:30:01.656Z,4.80
2023-04-10T13:32:28.759Z,4.00
2023-04-10T13:34:57.125Z,4.60
2023-04-10T13:37:24.175Z,4.28
2023-04-10T13:39:51.132Z,5.15
2023-04-10T13:42:18.107Z,3.92
2023-04-10T13:44:45.247Z,4.20
2023-04-10T13:47:12.295Z,6.32
2023-04-10T13:49:39.219Z,4.00
2023-04-10T13:52:06.247Z,3.80
2023-04-10T13:54:33.216Z,3.78
2023-04-10T13:57:00.553Z,3.50
2023-04-10T13:59:27.475Z,4.00
2023-04-10T14:01:54.579Z,4.57
2023-04-10T14:04:21.641Z,3.50
2023-04-10T14:06:51.671Z,3.85
2023-04-10T14:09:19.422Z,3.83
2023-04-10T14:11:46.350Z,4.68
2023-04-10T14:14:13.271Z,3.50
2023-04-10T14:16:40.241Z,3.60
2023-04-10T14:19:07.254Z,3.83
2023-04-10T14:21:34.217Z,3.60
2023-04-10T14:24:01.190Z,3.55
2023-04-10T14:26:28.179Z,3.70
2023-04-10T14:28:55.349Z,3.80
2023-04-10T14:31:22.458Z,3.92
2023-04-10T14:33:49.477Z,3.85
2023-04-10T14:36:16.696Z,4.07
2023-04-10T14:38:43.677Z,4.03
2023-04-10T14:41:11.260Z,4.10
2023-04-10T14:43:38.294Z,4.32
2023-04-10T14:46:05.519Z,3.60
2023-04-10T14:48:32.556Z,3.72
2023-04-10T14:51:00.863Z,4.00
2023-04-10T14:53:27.766Z,4.15
2023-04-10T14:55:54.778Z,4.18
2023-04-10T14:58:21.757Z,4.13
2023-04-10T15:00:50.575Z,4.90
2023-04-10T15:03:18.019Z,4.60
2023-04-10T15:05:45.172Z,4.20
2023-04-10T15:08:12.210Z,4.20
2023-04-10T15:10:39.216Z,3.90
2023-04-10T15:13:06.656Z,4.07
2023-04-10T15:15:33.797Z,3.80
2023-04-10T15:18:00.871Z,4.05
2023-04-10T15:20:27.964Z,3.70
2023-04-10T15:22:54.956Z,4.10
2023-04-10T15:25:21.878Z,4.32
2023-04-10T15:27:48.843Z,3.95
2023-04-10T15:30:17.364Z,3.70
2023-04-10T15:32:44.449Z,4.10
2023-04-10T15:35:11.459Z,5.25
2023-04-10T15:37:38.451Z,4.85
2023-04-10T15:40:06.344Z,4.60
2023-04-10T15:42:34.594Z,5.78
2023-04-10T15:45:01.603Z,4.97
2023-04-10T15:47:28.609Z,4.97
2023-04-10T15:49:58.865Z,5.22
2023-04-10T15:52:25.889Z,5.28
2023-04-10T15:54:52.933Z,5.22
2023-04-10T15:57:19.931Z,5.57
2023-04-10T15:59:46.863Z,5.47
2023-04-10T16:02:13.975Z,5.63
2023-04-10T16:04:41.262Z,5.72
2023-04-10T16:07:08.345Z,6.18
2023-04-10T16:09:35.491Z,6.22
2023-04-10T16:12:03.071Z,6.50
2023-04-10T16:14:30.291Z,6.72
2023-04-10T16:16:57.286Z,6.65
2023-04-10T16:19:24.250Z,7.57
2023-04-10T16:21:51.738Z,8.00
2023-04-10T16:24:18.719Z,8.07
2023-04-10T16:26:45.695Z,7.50
2023-04-10T16:29:12.672Z,8.13
2023-04-10T16:31:39.699Z,7.25
2023-04-10T16:34:06.972Z,7.38
2023-04-10T16:36:33.912Z,7.30
2023-04-10T16:39:00.889Z,8.13
2023-04-10T16:41:27.935Z,7.55
2023-04-10T16:43:55.228Z,6.97
2023-04-10T16:46:22.135Z,7.30
2023-04-10T16:48:49.131Z,7.00
2023-04-10T16:51:17.407Z,7.20
2023-04-10T16:53:44.562Z,6.97
2023-04-10T16:56:11.673Z,7.15
2023-04-10T16:58:40.957Z,7.25
2023-04-10T17:01:18.138Z,7.30
2023-04-10T17:03:47.632Z,5.75
2023-04-10T17:06:15.845Z,6.43
2023-04-10T17:08:43.093Z,8.23
2023-04-10T17:11:12.534Z,6.00
2023-04-10T17:13:41.955Z,5.72
2023-04-10T17:16:09.648Z,10.57
2023-04-10T17:18:36.933Z,5.93
2023-04-10T17:21:04.320Z,6.03
2023-04-10T17:23:31.496Z,6.70
2023-04-10T17:25:58.776Z,6.30
2023-04-10T17:28:27.720Z,6.88
2023-04-10T17:30:54.982Z,7.15
2023-04-10T17:33:23.689Z,7.78
2023-04-10T17:35:51.496Z,7.55
2023-04-10T17:38:18.880Z,7.95
2023-04-10T17:40:46.489Z,8.30
2023-04-10T17:43:18.229Z,8.75
2023-04-10T17:45:45.384Z,9.55
2023-04-10T17:48:12.469Z,10.52
2023-04-10T17:50:39.615Z,10.10
2023-04-10T17:53:06.720Z,10.90
2023-04-10T17:55:39.581Z,11.38
2023-04-10T17:58:06.566Z,11.70
2023-04-10T18:00:34.178Z,10.27
2023-04-10T18:03:01.314Z,11.30
2023-04-10T18:05:32.311Z,12.23
2023-04-10T18:07:59.352Z,11.82
2023-04-10T18:10:26.441Z,11.38
2023-04-10T18:12:56.712Z,12.77
2023-04-10T18:15:23.832Z,10.87
2023-04-10T18:17:51.453Z,11.13
2023-04-10T18:20:19.301Z,11.23
2023-04-10T18:22:47.995Z,10.90
2023-04-10T18:25:15.817Z,10.60
2023-04-10T18:28:10.143Z,10.52
2023-04-10T18:30:39.469Z,10.15
2023-04-10T18:33:09.913Z,10.63
2023-04-10T18:35:38.307Z,11.13
2023-04-10T18:38:06.572Z,10.73
2023-04-10T18:40:34.592Z,10.10
2023-04-10T18:43:01.680Z,10.48
2023-04-10T18:45:30.475Z,10.15
2023-04-10T18:47:57.569Z,10.80
2023-04-10T18:50:25.473Z,11.02
2023-04-10T18:52:52.444Z,10.55
2023-04-10T18:55:20.877Z,10.40
2023-04-10T18:57:47.981Z,9.18
2023-04-10T19:00:16.428Z,8.85
2023-04-10T19:02:44.111Z,8.68
2023-04-10T19:05:16.354Z,8.25
2023-04-10T19:07:52.949Z,7.50
2023-04-10T19:10:28.262Z,7.75
2023-04-10T19:12:56.208Z,8.05
2023-04-10T19:15:25.368Z,8.23
2023-04-10T19:17:53.799Z,7.28
2023-04-10T19:20:52.274Z,7.60
2023-04-10T19:23:09.353Z,7.72
2023-04-10T19:25:36.785Z,6.43
2023-04-10T19:28:04.033Z,8.45
2023-04-10T19:30:31.315Z,5.82
2023-04-10T19:32:58.482Z,5.77
2023-04-10T19:35:25.616Z,6.97
2023-04-10T19:37:56.894Z,5.13
2023-04-10T19:40:23.924Z,5.30
2023-04-10T19:42:51.058Z,5.83
2023-04-10T19:45:18.172Z,6.65
2023-04-10T19:47:45.465Z,6.22
2023-04-10T19:50:13.095Z,5.15
2023-04-10T19:52:40.542Z,6.07
2023-04-10T19:55:07.848Z,5.68
2023-04-10T19:57:35.551Z,6.22
2023-04-10T20:00:02.617Z,6.43
2023-04-10T20:02:31.138Z,6.28
2023-04-10T20:04:58.435Z,6.28
2023-04-10T20:07:26.616Z,7.10
2023-04-10T20:09:53.641Z,5.70
2023-04-10T20:12:20.722Z,6.82
2023-04-10T20:14:47.740Z,6.90
2023-04-10T20:17:18.846Z,9.00
2023-04-10T20:19:46.315Z,7.22
2023-04-10T20:22:13.632Z,8.35
2023-04-10T20:24:43.902Z,8.40
2023-04-10T20:27:10.895Z,8.88
2023-04-10T20:29:38.070Z,8.68
2023-04-10T20:32:08.140Z,10.17
2023-04-10T20:34:36.034Z,10.52
2023-04-10T20:37:03.311Z,10.68
2023-04-10T20:39:30.309Z,10.93
2023-04-10T20:41:57.386Z,9.80
2023-04-10T20:44:24.498Z,10.70
2023-04-10T20:46:51.462Z,11.43
2023-04-10T20:49:18.530Z,10.77
2023-04-10T20:51:45.633Z,11.30
2023-04-10T20:54:12.647Z,11.63
2023-04-10T20:56:43.365Z,11.70
2023-04-10T20:59:11.196Z,11.60
2023-04-10T21:01:38.734Z,11.98
2023-04-10T21:04:06.264Z,11.30
2023-04-10T21:06:33.637Z,9.98
2023-04-10T21:09:00.686Z,12.32
2023-04-10T21:11:27.969Z,12.07
2023-04-10T21:13:54.896Z,13.32
2023-04-10T21:16:22.039Z,12.00
2023-04-10T21:18:49.117Z,13.40
2023-04-10T21:21:16.387Z,11.65
2023-04-10T21:23:43.394Z,12.45
2023-04-10T21:26:10.570Z,11.77
2023-04-10T21:28:37.678Z,12.38
2023-04-10T21:31:04.807Z,12.15
2023-04-10T21:33:32.610Z,11.52
2023-04-10T21:35:59.660Z,13.25
2023-04-10T21:38:26.754Z,14.15
2023-04-10T21:40:54.497Z,10.85
2023-04-10T21:43:21.919Z,13.07
2023-04-10T21:45:49.203Z,9.93
2023-04-10T21:48:16.439Z,12.68
2023-04-10T21:50:43.470Z,13.20
2023-04-10T21:53:10.474Z,15.30
2023-04-10T21:55:37.507Z,13.13
2023-04-10T21:58:04.847Z,14.23
2023-04-10T22:00:33.186Z,15.80
2023-04-10T22:03:00.459Z,14.82
2023-04-10T22:05:27.814Z,14.43
2023-04-10T22:07:54.871Z,16.17
2023-04-10T22:10:21.940Z,14.98
2023-04-10T22:12:49.365Z,16.27
2023-04-10T22:15:16.966Z,16.17
2023-04-10T22:17:43.999Z,17.88
2023-04-10T22:20:11.149Z,17.27
2023-04-10T22:22:38.142Z,16.60
2023-04-10T22:25:05.489Z,16.75
2023-04-10T22:27:32.941Z,17.17
2023-04-10T22:30:04.050Z,18.05
2023-04-10T22:32:31.749Z,17.83
2023-04-10T22:34:59.741Z,17.67
2023-04-10T22:37:27.416Z,17.40
2023-04-10T22:39:56.369Z,17.73
2023-04-10T22:42:23.838Z,16.88
2023-04-10T22:44:50.933Z,18.33
2023-04-10T22:47:18.033Z,19.33
2023-04-10T22:49:45.266Z,17.60
2023-04-10T22:52:12.645Z,18.95
2023-04-10T22:54:39.642Z,18.35
2023-04-10T22:57:06.876Z,23.20
2023-04-10T22:59:36.716Z,17.67
2023-04-10T23:02:03.798Z,21.48
2023-04-10T23:04:30.919Z,9.82
2023-04-10T23:06:57.843Z,7.60
2023-04-10T23:09:25.608Z,7.13
2023-04-10T23:11:52.523Z,7.73
2023-04-10T23:14:19.758Z,5.87
2023-04-10T23:16:46.971Z,8.40
2023-04-10T23:19:14.168Z,8.73
2023-04-10T23:21:41.146Z,9.97
2023-04-10T23:24:08.139Z,10.35
2023-04-10T23:26:35.186Z,8.70
2023-04-10T23:29:02.126Z,9.98
2023-04-10T23:31:29.161Z,10.43
2023-04-10T23:33:56.142Z,10.38
2023-04-10T23:36:23.105Z,11.95
2023-04-10T23:38:50.017Z,8.97
2023-04-10T23:41:16.958Z,10.77
2023-04-10T23:43:44.473Z,10.48
2023-04-10T23:46:11.441Z,9.52
2023-04-10T23:48:38.414Z,10.40
2023-04-10T23:51:08.877Z,10.30
2023-04-10T23:53:36.008Z,10.30
2023-04-10T23:56:02.941Z,10.97
2023-04-10T23:58:30.295Z,12.48
